createdAt,value
2018-07-03T00:00:09.023Z,0.90
2018-07-03T00:02:36.817Z,0.73
2018-07-03T00:05:04.962Z,0.90
2018-07-03T00:07:32.629Z,0.80
2018-07-03T00:10:00.400Z,0.80
2018-07-03T00:12:28.073Z,0.80
2018-07-03T00:14:56.267Z,0.70
2018-07-03T00:17:23.978Z,1.13
2018-07-03T00:19:51.986Z,0.90
2018-07-03T00:22:20.604Z,0.70
2018-07-03T00:24:48.274Z,0.77
2018-07-03T00:27:16.816Z,0.93
2018-07-03T00:29:44.587Z,0.67
2018-07-03T00:32:12.617Z,0.90
2018-07-03T00:34:40.556Z,0.90
2018-07-03T00:37:08.356Z,0.87
2018-07-03T00:39:36.325Z,0.77
2018-07-03T00:42:04.057Z,1.27
2018-07-03T00:44:31.762Z,0.70
2018-07-03T00:46:59.789Z,1.23
2018-07-03T00:49:27.444Z,0.90
2018-07-03T00:51:55.072Z,1.07
2018-07-03T00:54:22.721Z,1.00
2018-07-03T00:56:51.081Z,0.80
2018-07-03T00:59:18.802Z,0.90
2018-07-03T01:01:47.498Z,0.80
2018-07-03T01:04:15.223Z,1.00
2018-07-03T01:06:42.887Z,0.80
2018-07-03T01:09:10.541Z,0.90
2018-07-03T01:11:39.112Z,1.10
2018-07-03T01:14:06.873Z,0.93
2018-07-03T01:16:34.633Z,1.17
2018-07-03T01:19:02.269Z,0.83
2018-07-03T01:21:29.908Z,1.07
2018-07-03T01:23:57.673Z,0.93
2018-07-03T01:26:25.346Z,0.80
2018-07-03T01:28:53.377Z,1.00
2018-07-03T01:31:21.820Z,0.83
2018-07-03T01:33:49.410Z,0.93
2018-07-03T01:36:17.127Z,0.97
2018-07-03T01:38:44.739Z,0.73
2018-07-03T01:41:12.636Z,0.77
2018-07-03T01:43:40.210Z,0.80
2018-07-03T01:46:07.830Z,1.03
2018-07-03T01:48:35.691Z,0.90
2018-07-03T01:51:03.345Z,1.20
2018-07-03T01:53:31.034Z,0.90
2018-07-03T01:55:58.692Z,0.90
2018-07-03T01:58:26.333Z,0.90
2018-07-03T02:00:54.009Z,0.70
2018-07-03T02:03:22.266Z,0.80
2018-07-03T02:05:50.854Z,0.93
2018-07-03T02:08:18.594Z,0.80
2018-07-03T02:10:46.198Z,1.10
2018-07-03T02:13:13.806Z,0.90
2018-07-03T02:15:41.411Z,0.80
2018-07-03T02:18:09.034Z,1.00
2018-07-03T02:20:36.639Z,0.90
2018-07-03T02:23:04.597Z,0.90
2018-07-03T02:25:32.277Z,0.90
2018-07-03T02:28:00.305Z,0.93
2018-07-03T02:30:28.000Z,1.00
2018-07-03T02:32:55.685Z,1.10
2018-07-03T02:35:23.283Z,0.93
2018-07-03T02:37:50.891Z,1.00
2018-07-03T02:40:18.483Z,1.20
2018-07-03T02:42:46.092Z,1.20
2018-07-03T02:45:13.681Z,0.80
2018-07-03T02:47:41.419Z,1.00
2018-07-03T02:50:09.079Z,1.40
2018-07-03T02:52:36.766Z,1.27
2018-07-03T02:55:04.469Z,0.90
2018-07-03T02:57:32.166Z,1.00
2018-07-03T02:59:59.769Z,1.10
2018-07-03T03:02:27.434Z,1.17
2018-07-03T03:04:55.141Z,0.90
2018-07-03T03:07:22.805Z,1.30
2018-07-03T03:09:50.449Z,1.10
2018-07-03T03:12:18.078Z,1.20
2018-07-03T03:14:45.710Z,1.17
2018-07-03T03:17:13.327Z,1.10
2018-07-03T03:19:40.937Z,1.20
2018-07-03T03:22:08.587Z,1.30
2018-07-03T03:24:36.215Z,1.13
2018-07-03T03:27:04.028Z,1.07
2018-07-03T03:29:31.775Z,1.00
2018-07-03T03:31:59.406Z,1.03
2018-07-03T03:34:27.063Z,1.20
2018-07-03T03:36:54.649Z,1.00
2018-07-03T03:39:22.396Z,0.90
2018-07-03T03:41:50.270Z,1.37
2018-07-03T03:44:17.957Z,1.80
2018-07-03T03:46:45.647Z,1.30
2018-07-03T03:49:13.285Z,1.40
2018-07-03T03:51:40.978Z,2.00
2018-07-03T03:54:08.698Z,1.30
2018-07-03T03:56:36.377Z,1.27
2018-07-03T03:59:04.043Z,1.40
2018-07-03T04:01:31.732Z,1.40
2018-07-03T04:03:59.340Z,1.53
2018-07-03T04:06:27.009Z,1.57
2018-07-03T04:08:54.606Z,1.17
2018-07-03T04:11:22.286Z,1.83
2018-07-03T04:13:49.878Z,1.30
2018-07-03T04:16:17.497Z,1.60
2018-07-03T04:18:45.114Z,1.50
2018-07-03T04:21:12.737Z,1.53
2018-07-03T04:23:40.311Z,1.90
2018-07-03T04:26:07.981Z,1.40
2018-07-03T04:28:35.780Z,1.53
2018-07-03T04:31:03.670Z,1.20
2018-07-03T04:33:31.358Z,1.10
2018-07-03T04:35:59.203Z,1.30
2018-07-03T04:38:26.883Z,1.53
2018-07-03T04:40:54.567Z,1.30
2018-07-03T04:43:22.175Z,1.90
2018-07-03T04:45:49.834Z,1.43
2018-07-03T04:48:17.482Z,1.13
2018-07-03T04:50:45.047Z,1.80
2018-07-03T04:53:12.676Z,1.43
2018-07-03T04:55:40.278Z,1.43
2018-07-03T04:58:07.933Z,1.60
2018-07-03T05:00:35.568Z,1.07
2018-07-03T05:03:03.286Z,1.50
2018-07-03T05:05:30.884Z,1.33
2018-07-03T05:07:58.793Z,1.20
2018-07-03T05:10:26.396Z,1.90
2018-07-03T05:12:54.040Z,1.30
2018-07-03T05:15:21.641Z,1.63
2018-07-03T05:17:49.616Z,1.30
2018-07-03T05:20:17.459Z,1.30
2018-07-03T05:22:45.171Z,1.93
2018-07-03T05:25:12.887Z,1.93
2018-07-03T05:27:40.586Z,1.70
2018-07-03T05:30:08.288Z,2.13
2018-07-03T05:32:35.935Z,2.20
2018-07-03T05:35:03.877Z,2.10
2018-07-03T05:37:31.565Z,1.77
2018-07-03T05:39:59.445Z,2.13
2018-07-03T05:42:27.126Z,1.90
2018-07-03T05:44:54.734Z,1.57
2018-07-03T05:47:22.451Z,1.70
2018-07-03T05:49:50.105Z,2.50
2018-07-03T05:52:17.751Z,2.13
2018-07-03T05:54:45.373Z,1.43
2018-07-03T05:57:13.090Z,2.00
2018-07-03T05:59:40.714Z,2.13
2018-07-03T06:02:08.310Z,2.30
2018-07-03T06:04:36.019Z,2.00
2018-07-03T06:07:03.906Z,1.77
2018-07-03T06:09:31.584Z,1.77
2018-07-03T06:11:59.230Z,2.17
2018-07-03T06:14:26.885Z,1.73
2018-07-03T06:16:55.530Z,1.70
2018-07-03T06:19:24.340Z,1.90
2018-07-03T06:21:52.978Z,2.10
2018-07-03T06:24:20.626Z,1.93
2018-07-03T06:26:48.268Z,1.73
2018-07-03T06:29:16.003Z,1.93
2018-07-03T06:31:43.686Z,1.70
2018-07-03T06:34:11.305Z,3.37
2018-07-03T06:36:38.941Z,3.00
2018-07-03T06:39:10.264Z,2.43
2018-07-03T06:41:38.189Z,1.87
2018-07-03T06:44:05.926Z,2.47
2018-07-03T06:46:33.947Z,1.60
2018-07-03T06:49:01.683Z,2.10
2018-07-03T06:51:29.296Z,1.93
2018-07-03T06:53:57.656Z,1.80
2018-07-03T06:56:25.247Z,1.90
2018-07-03T06:58:53.725Z,1.90
2018-07-03T07:01:21.475Z,1.37
2018-07-03T07:03:49.086Z,1.10
2018-07-03T07:06:16.639Z,1.17
2018-07-03T07:08:44.414Z,1.00
2018-07-03T07:11:12.003Z,1.40
2018-07-03T07:13:39.711Z,1.53
2018-07-03T07:16:07.370Z,2.13
2018-07-03T07:18:34.995Z,1.03
2018-07-03T07:21:02.633Z,1.00
2018-07-03T07:23:30.305Z,0.93
2018-07-03T07:25:58.021Z,1.30
2018-07-03T07:28:25.749Z,0.90
2018-07-03T07:30:53.497Z,0.90
2018-07-03T07:33:21.217Z,1.00
2018-07-03T07:35:49.102Z,0.80
2018-07-03T07:38:16.729Z,0.83
2018-07-03T07:40:44.311Z,0.90
2018-07-03T07:43:11.926Z,0.80
2018-07-03T07:45:39.538Z,0.80
2018-07-03T07:48:07.345Z,0.80
2018-07-03T07:50:35.066Z,0.73
2018-07-03T07:53:02.792Z,0.70
2018-07-03T07:55:30.522Z,0.80
2018-07-03T07:57:58.197Z,0.80
2018-07-03T08:00:25.932Z,0.87
2018-07-03T08:02:53.621Z,0.87
2018-07-03T08:05:21.306Z,0.87
2018-07-03T08:07:48.989Z,0.60
2018-07-03T08:10:16.634Z,1.07
2018-07-03T08:12:44.271Z,0.70
2018-07-03T08:15:11.893Z,0.70
2018-07-03T08:17:39.552Z,0.80
2018-07-03T08:20:07.268Z,0.80
2018-07-03T08:22:34.854Z,0.60
2018-07-03T08:25:02.587Z,0.90
2018-07-03T08:27:30.267Z,1.07
2018-07-03T08:29:57.979Z,0.70
2018-07-03T08:32:25.632Z,0.80
2018-07-03T08:34:53.291Z,0.80
2018-07-03T08:37:21.026Z,0.90
2018-07-03T08:39:48.716Z,0.93
2018-07-03T08:42:16.449Z,1.07
2018-07-03T08:44:44.127Z,0.70
2018-07-03T08:47:11.816Z,0.90
2018-07-03T08:49:39.543Z,0.90
2018-07-03T08:52:07.304Z,0.90
2018-07-03T08:54:34.976Z,0.90
2018-07-03T08:57:02.748Z,1.00
2018-07-03T08:59:30.473Z,0.80
2018-07-03T09:01:58.175Z,0.83
2018-07-03T09:04:25.876Z,0.90
2018-07-03T09:06:53.681Z,0.83
2018-07-03T09:09:21.382Z,0.90
2018-07-03T09:11:49.052Z,0.90
2018-07-03T09:14:16.717Z,0.80
2018-07-03T09:16:44.381Z,0.90
2018-07-03T09:19:12.038Z,0.80
2018-07-03T09:21:39.745Z,1.30
2018-07-03T09:24:07.710Z,0.70
2018-07-03T09:26:35.411Z,0.70
2018-07-03T09:29:03.082Z,0.80
2018-07-03T09:31:30.722Z,1.00
2018-07-03T09:33:58.370Z,1.00
2018-07-03T09:36:26.072Z,1.10
2018-07-03T09:38:53.711Z,0.83
2018-07-03T09:41:21.631Z,0.63
2018-07-03T09:43:49.274Z,0.77
2018-07-03T09:46:16.996Z,0.70
2018-07-03T09:48:44.787Z,0.80
2018-07-03T09:51:12.552Z,0.80
2018-07-03T09:53:40.897Z,1.07
2018-07-03T09:56:09.114Z,0.80
2018-07-03T09:58:36.860Z,0.87
2018-07-03T10:01:10.258Z,0.93
2018-07-03T10:03:37.893Z,0.87
2018-07-03T10:06:06.241Z,0.80
2018-07-03T10:08:33.966Z,0.80
2018-07-03T10:11:01.702Z,0.80
2018-07-03T10:13:29.622Z,0.70
2018-07-03T10:15:57.393Z,0.93
2018-07-03T10:18:25.147Z,0.80
2018-07-03T10:20:52.988Z,0.70
2018-07-03T10:23:20.752Z,1.03
2018-07-03T10:25:48.473Z,0.83
2018-07-03T10:28:16.211Z,1.17
2018-07-03T10:30:43.953Z,1.27
2018-07-03T10:33:11.739Z,1.20
2018-07-03T10:35:39.397Z,0.87
2018-07-03T10:38:07.106Z,1.00
2018-07-03T10:40:34.704Z,1.10
2018-07-03T10:43:02.362Z,1.07
2018-07-03T10:45:29.991Z,0.90
2018-07-03T10:47:57.657Z,0.90
2018-07-03T10:50:25.444Z,0.70
2018-07-03T10:52:53.106Z,0.70
2018-07-03T10:55:20.796Z,1.10
2018-07-03T10:57:48.591Z,0.80
2018-07-03T11:00:16.283Z,1.00
2018-07-03T11:02:44.073Z,1.03
2018-07-03T11:05:11.816Z,1.03
2018-07-03T11:07:39.849Z,0.70
2018-07-03T11:10:07.914Z,0.83
2018-07-03T11:12:35.708Z,0.90
2018-07-03T11:15:03.741Z,1.00
2018-07-03T11:17:31.671Z,0.90
2018-07-03T11:20:00.335Z,1.03
2018-07-03T11:22:28.379Z,0.80
2018-07-03T11:24:56.125Z,0.80
2018-07-03T11:27:23.903Z,0.90
2018-07-03T11:29:51.535Z,1.00
2018-07-03T11:32:19.243Z,0.90
2018-07-03T11:34:46.927Z,1.00
2018-07-03T11:37:14.811Z,0.80
2018-07-03T11:39:42.429Z,1.27
2018-07-03T11:42:10.098Z,0.80
2018-07-03T11:44:38.308Z,1.00
2018-07-03T11:49:40.404Z,1.13
2018-07-03T11:52:08.076Z,0.90
2018-07-03T11:54:35.724Z,0.90
2018-07-03T11:57:03.388Z,0.90
2018-07-03T11:59:31.037Z,0.90
2018-07-03T12:02:00.803Z,1.00
2018-07-03T12:04:33.147Z,0.80
2018-07-03T12:07:00.841Z,1.10
2018-07-03T12:09:28.520Z,0.80
2018-07-03T12:11:56.266Z,0.70
2018-07-03T12:14:24.060Z,0.83
2018-07-03T12:16:53.108Z,0.80
2018-07-03T12:19:20.958Z,0.90
2018-07-03T12:21:48.707Z,1.00
2018-07-03T12:24:16.386Z,1.00
2018-07-03T12:26:44.019Z,0.80
2018-07-03T12:29:11.784Z,0.90
2018-07-03T12:31:39.434Z,0.70
2018-07-03T12:34:07.076Z,0.87
2018-07-03T12:36:34.767Z,1.17
2018-07-03T12:39:03.845Z,0.90
2018-07-03T12:41:31.487Z,0.90
2018-07-03T12:43:59.240Z,0.90
2018-07-03T12:46:27.184Z,0.80
2018-07-03T12:48:54.839Z,0.63
2018-07-03T12:51:22.552Z,0.70
2018-07-03T12:53:50.134Z,0.70
2018-07-03T12:56:18.163Z,0.70
2018-07-03T12:58:45.864Z,0.80
2018-07-03T13:01:13.665Z,0.90
2018-07-03T13:03:41.350Z,0.97
2018-07-03T13:06:09.232Z,0.80
2018-07-03T13:08:37.753Z,0.80
2018-07-03T13:11:05.469Z,0.60
2018-07-03T13:13:33.157Z,0.93
2018-07-03T13:16:00.824Z,0.60
2018-07-03T13:18:28.489Z,0.60
2018-07-03T13:20:56.121Z,0.90
2018-07-03T13:23:24.689Z,0.70
2018-07-03T13:25:53.031Z,0.70
2018-07-03T13:28:20.703Z,0.60
2018-07-03T13:30:48.392Z,0.60
2018-07-03T13:33:16.119Z,0.70
2018-07-03T13:35:43.823Z,0.80
2018-07-03T13:38:11.528Z,0.80
2018-07-03T13:40:39.207Z,0.90
2018-07-03T13:43:07.050Z,0.80
2018-07-03T13:45:34.722Z,0.90
2018-07-03T13:48:02.419Z,0.80
2018-07-03T13:50:30.099Z,0.87
2018-07-03T13:52:57.784Z,0.70
2018-07-03T13:55:25.450Z,0.80
2018-07-03T13:57:53.078Z,0.80
2018-07-03T14:00:20.694Z,0.67
2018-07-03T14:02:48.354Z,0.70
2018-07-03T14:05:16.038Z,0.70
2018-07-03T14:07:43.664Z,0.80
2018-07-03T14:10:11.272Z,0.80
2018-07-03T14:12:38.939Z,1.00
2018-07-03T14:15:08.274Z,0.70
2018-07-03T14:17:35.953Z,0.70
2018-07-03T14:20:03.916Z,0.70
2018-07-03T14:22:31.575Z,0.70
2018-07-03T14:24:59.371Z,0.50
2018-07-03T14:27:27.113Z,1.03
2018-07-03T14:29:54.827Z,0.70
2018-07-03T14:32:22.511Z,0.80
2018-07-03T14:34:50.143Z,0.60
2018-07-03T14:37:17.803Z,0.73
2018-07-03T14:39:45.477Z,0.80
2018-07-03T14:42:13.196Z,0.63
2018-07-03T14:44:41.016Z,0.80
2018-07-03T14:47:08.720Z,0.77
2018-07-03T14:49:36.354Z,0.60
2018-07-03T14:52:04.463Z,0.60
2018-07-03T14:54:32.131Z,0.83
2018-07-03T14:57:00.175Z,0.80
2018-07-03T14:59:27.853Z,1.00
2018-07-03T15:01:55.667Z,0.90
2018-07-03T15:04:23.337Z,1.10
2018-07-03T15:06:50.993Z,1.00
2018-07-03T15:09:18.955Z,1.20
2018-07-03T15:11:46.820Z,0.70
2018-07-03T15:14:15.352Z,0.80
2018-07-03T15:16:43.794Z,0.60
2018-07-03T15:19:17.411Z,0.70
2018-07-03T15:21:45.144Z,0.70
2018-07-03T15:24:12.813Z,0.90
2018-07-03T15:26:41.731Z,0.83
2018-07-03T15:29:10.883Z,1.03
2018-07-03T15:31:39.097Z,0.93
2018-07-03T15:34:07.430Z,0.90
2018-07-03T15:36:35.182Z,1.03
2018-07-03T15:39:05.303Z,0.77
2018-07-03T15:41:33.091Z,0.93
2018-07-03T15:44:18.155Z,1.17
2018-07-03T15:46:45.818Z,1.10
2018-07-03T15:49:13.811Z,0.90
2018-07-03T15:51:41.567Z,0.80
2018-07-03T15:54:09.279Z,0.70
2018-07-03T15:56:37.661Z,0.80
2018-07-03T15:59:05.414Z,0.80
2018-07-03T16:01:33.127Z,0.70
2018-07-03T16:05:22.245Z,0.93
2018-07-03T16:09:12.537Z,1.07
2018-07-03T16:11:40.991Z,0.93
2018-07-03T16:14:09.566Z,0.70
2018-07-03T16:16:37.335Z,0.70
2018-07-03T16:19:11.063Z,0.70
2018-07-03T16:21:39.062Z,0.93
2018-07-03T16:24:07.366Z,0.77
2018-07-03T16:26:35.048Z,0.77
2018-07-03T16:29:03.948Z,0.83
2018-07-03T16:31:31.766Z,1.00
2018-07-03T16:33:59.452Z,0.70
2018-07-03T16:36:27.112Z,0.70
2018-07-03T16:38:54.769Z,0.70
2018-07-03T16:41:22.430Z,0.80
2018-07-03T16:43:50.101Z,1.67
2018-07-03T16:46:17.881Z,1.00
2018-07-03T16:48:45.602Z,0.70
2018-07-03T16:51:13.368Z,0.80
2018-07-03T16:53:41.106Z,0.80
2018-07-03T16:56:09.182Z,0.97
2018-07-03T16:58:37.366Z,2.70
2018-07-03T17:01:04.989Z,0.80
2018-07-03T17:03:32.662Z,0.90
2018-07-03T17:06:00.375Z,0.80
2018-07-03T17:08:28.278Z,0.80
2018-07-03T17:10:56.107Z,1.00
2018-07-03T17:13:24.117Z,1.00
2018-07-03T17:15:51.795Z,0.90
2018-07-03T17:18:19.479Z,0.80
2018-07-03T17:20:47.160Z,0.80
2018-07-03T17:23:14.730Z,1.30
2018-07-03T17:25:42.440Z,0.90
2018-07-03T17:28:10.222Z,1.07
2018-07-03T17:30:37.954Z,1.00
2018-07-03T17:33:05.799Z,0.97
2018-07-03T17:35:33.480Z,0.90
2018-07-03T17:38:01.122Z,1.10
2018-07-03T17:40:41.077Z,1.00
2018-07-03T17:44:11.925Z,0.80
2018-07-03T17:46:39.605Z,1.10
2018-07-03T17:49:07.588Z,1.50
2018-07-03T17:51:35.593Z,1.10
2018-07-03T17:54:03.323Z,1.37
2018-07-03T17:56:31.053Z,1.10
2018-07-03T17:58:59.162Z,1.20
2018-07-03T18:01:26.975Z,0.80
2018-07-03T18:03:54.699Z,0.80
2018-07-03T18:06:22.638Z,1.20
2018-07-03T18:08:50.768Z,0.90
2018-07-03T18:11:19.019Z,1.50
2018-07-03T18:13:46.986Z,1.60
2018-07-03T18:16:14.827Z,1.10
2018-07-03T18:18:42.514Z,1.70
2018-07-03T18:21:10.980Z,1.37
2018-07-03T18:23:38.690Z,1.70
2018-07-03T18:26:06.829Z,1.23
2018-07-03T18:28:34.820Z,1.10
2018-07-03T18:31:03.248Z,0.90
2018-07-03T18:33:30.957Z,0.90
2018-07-03T18:35:58.755Z,1.10
2018-07-03T18:38:26.477Z,1.00
2018-07-03T18:40:55.083Z,1.00
2018-07-03T18:43:22.859Z,1.27
2018-07-03T18:45:50.576Z,1.00
2018-07-03T18:48:18.347Z,1.10
2018-07-03T18:50:46.041Z,1.10
2018-07-03T18:53:13.963Z,1.10
2018-07-03T18:55:41.631Z,1.10
2018-07-03T18:58:09.585Z,1.13
2018-07-03T19:00:37.346Z,1.43
2018-07-03T19:03:05.233Z,1.60
2018-07-03T19:05:32.911Z,0.80
2018-07-03T19:08:00.681Z,1.40
2018-07-03T19:10:28.583Z,1.20
2018-07-03T19:12:56.189Z,0.90
2018-07-03T19:15:23.943Z,1.13
2018-07-03T19:17:51.650Z,1.50
2018-07-03T19:20:19.389Z,1.17
2018-07-03T19:22:47.166Z,1.20
2018-07-03T19:25:14.980Z,1.10
2018-07-03T19:27:42.654Z,1.00
2018-07-03T19:30:10.471Z,1.10
2018-07-03T19:32:38.165Z,1.10
2018-07-03T19:35:06.080Z,0.90
2018-07-03T19:37:33.833Z,0.97
2018-07-03T19:40:01.504Z,1.20
2018-07-03T19:42:29.226Z,1.10
2018-07-03T19:44:57.038Z,1.00
2018-07-03T19:47:24.740Z,1.10
2018-07-03T19:49:52.486Z,0.90
2018-07-03T19:52:20.162Z,1.30
2018-07-03T19:54:47.931Z,1.20
2018-07-03T19:57:15.650Z,1.57
2018-07-03T19:59:43.287Z,0.90
2018-07-03T20:02:11.084Z,0.90
2018-07-03T20:04:38.740Z,1.20
2018-07-03T20:07:06.536Z,1.47
2018-07-03T20:09:34.202Z,1.10
2018-07-03T20:12:01.908Z,1.60
2018-07-03T20:14:29.629Z,1.40
2018-07-03T20:16:57.338Z,2.20
2018-07-03T20:19:25.251Z,1.73
2018-07-03T20:21:52.938Z,1.40
2018-07-03T20:24:20.666Z,1.40
2018-07-03T20:26:48.374Z,1.30
2018-07-03T20:29:16.155Z,1.20
2018-07-03T20:31:43.925Z,1.47
2018-07-03T20:34:11.765Z,1.53
2018-07-03T20:36:39.428Z,1.10
2018-07-03T20:39:08.656Z,0.90
2018-07-03T20:41:36.497Z,1.87
2018-07-03T20:44:04.159Z,1.20
2018-07-03T20:46:31.796Z,1.50
2018-07-03T20:48:59.664Z,2.07
2018-07-03T20:51:27.323Z,1.13
2018-07-03T20:53:54.906Z,1.10
2018-07-03T20:56:22.543Z,1.30
2018-07-03T20:58:50.189Z,1.00
2018-07-03T21:01:17.843Z,1.30
2018-07-03T21:03:45.712Z,1.23
2018-07-03T21:06:13.624Z,1.20
2018-07-03T21:08:41.112Z,1.27
2018-07-03T21:11:08.721Z,1.20
2018-07-03T21:13:36.436Z,0.90
2018-07-03T21:16:04.087Z,1.10
2018-07-03T21:18:31.786Z,1.10
2018-07-03T21:20:59.489Z,2.37
2018-07-03T21:23:27.145Z,1.30
2018-07-03T21:25:54.813Z,1.43
2018-07-03T21:28:22.467Z,1.50
2018-07-03T21:30:50.141Z,1.37
2018-07-03T21:33:18.077Z,1.40
2018-07-03T21:35:45.873Z,1.40
2018-07-03T21:38:13.677Z,1.17
2018-07-03T21:40:41.258Z,1.10
2018-07-03T21:43:08.881Z,1.10
2018-07-03T21:45:36.525Z,1.20
2018-07-03T21:48:04.223Z,1.10
2018-07-03T21:50:31.815Z,1.57
2018-07-03T21:52:59.472Z,1.10
2018-07-03T21:55:27.110Z,1.23
2018-07-03T21:57:54.758Z,1.60
2018-07-03T22:00:38.043Z,2.00
2018-07-03T22:03:07.340Z,1.20
2018-07-03T22:05:35.402Z,1.20
2018-07-03T22:08:03.260Z,1.60
2018-07-03T22:10:31.064Z,1.00
2018-07-03T22:12:58.718Z,1.00
2018-07-03T22:15:26.383Z,1.10
2018-07-03T22:17:54.124Z,1.03
2018-07-03T22:20:21.827Z,1.60
2018-07-03T22:22:49.556Z,1.27
2018-07-03T22:25:17.510Z,1.10
2018-07-03T22:27:45.145Z,1.40
2018-07-03T22:30:13.010Z,1.10
2018-07-03T22:32:40.912Z,1.27
2018-07-03T22:35:08.556Z,1.50
2018-07-03T22:37:36.177Z,1.20
2018-07-03T22:40:03.900Z,1.33
2018-07-03T22:42:31.529Z,1.03
2018-07-03T22:44:59.165Z,1.83
2018-07-03T22:47:26.883Z,1.30
2018-07-03T22:49:54.565Z,1.13
2018-07-03T22:52:22.242Z,1.10
2018-07-03T22:54:49.916Z,2.10
2018-07-03T22:57:17.565Z,1.40
2018-07-03T22:59:45.160Z,1.40
2018-07-03T23:02:12.812Z,1.40
2018-07-03T23:04:40.470Z,1.80
2018-07-03T23:07:08.128Z,1.43
2018-07-03T23:09:35.728Z,1.60
2018-07-03T23:12:04.019Z,1.30
2018-07-03T23:14:31.650Z,1.43
2018-07-03T23:16:59.312Z,1.40
2018-07-03T23:19:26.938Z,1.90
2018-07-03T23:21:54.850Z,1.60
2018-07-03T23:24:22.514Z,1.20
2018-07-03T23:26:50.158Z,1.50
2018-07-03T23:29:18.296Z,1.33
2018-07-03T23:31:46.015Z,1.70
2018-07-03T23:34:13.628Z,1.40
2018-07-03T23:36:41.282Z,1.73
2018-07-03T23:39:09.850Z,1.30
2018-07-03T23:41:37.507Z,1.77
2018-07-03T23:44:05.296Z,1.80
2018-07-03T23:46:50.734Z,1.63
2018-07-03T23:49:35.967Z,1.60
2018-07-03T23:52:21.270Z,1.80
2018-07-03T23:55:06.398Z,1.47
2018-07-03T23:57:51.620Z,1.33
